Bolivia, North Carolina
Current Conditions -  °F | °C
As of 12:35 AM on Wednesday 26 Nov 2014 (Local Time) from KSUT Reporting Station
Overcast Overcast  
Wind Chill: 63°   Ceiling: 200
Heat Index: 63°   Visibility: 7mi
Dew Point: 62°   Wind: 7mph
Humidity: 97%   Direction: 90°E
Pressure: 29.88"   Gusts: NA
Location:  34.07°N, 78.15°W
Report Text: KSUT 260535Z AUTO 09006KT 7SM OVC002 17/17 A2988 RMK AO2 T01730169
Loading
Personal Weather Stations






























Interactive Weather Map New forecast layout! Learn more

10-Day Weather Forecast

Advertisements
Track Severe Weather on mobile